Time;durP1;ratioP1;P1;durP2;ratioP2;P2;SDS_P1;SDS_P2;PMS_P1;PMS_P2;Temp;Humidity;BMP_temperature;BMP_pressure;BME280_temperature;BME280_humidity;BME280_pressure;Samples;Min_cycle;Max_cycle;Signal;HPM_P1;HPM_P2
2023/12/24 00:01:13;;;;;;;10.70;4.10;;;;;;;-147.86;100.00;-17609.17;106665;1248;64554;-50
2023/12/24 00:03:41;;;;;;;8.10;3.90;;;;;;;-147.86;100.00;-17609.17;106650;1244;72681;-56
2023/12/24 00:06:08;;;;;;;8.80;3.70;;;;;;;-147.86;100.00;-17609.17;106685;1248;60521;-55
2023/12/24 00:08:39;;;;;;;9.50;3.90;;;;;;;-147.86;100.00;-17609.17;106789;1244;60477;-48
2023/12/24 00:11:09;;;;;;;9.70;4.00;;;;;;;-147.86;100.00;-17609.17;106775;1247;72552;-53
2023/12/24 00:13:36;;;;;;;12.80;4.50;;;;;;;-147.86;100.00;-17609.17;106750;1248;64546;-54
2023/12/24 00:16:04;;;;;;;11.30;4.00;;;;;;;-147.86;100.00;-17609.17;106664;1244;71659;-48
2023/12/24 00:18:30;;;;;;;8.90;4.50;;;;;;;-147.86;100.00;-17609.17;106707;1248;60399;-55
2023/12/24 00:20:57;;;;;;;12.30;4.40;;;;;;;-147.86;100.00;-17609.17;106701;1244;60464;-51
2023/12/24 00:23:24;;;;;;;8.40;4.00;;;;;;;-147.86;100.00;-17609.17;106651;1245;73954;-53
2023/12/24 00:25:51;;;;;;;11.80;3.90;;;;;;;-147.86;100.00;-17609.17;106697;1248;64655;-50
2023/12/24 00:28:18;;;;;;;14.90;4.40;;;;;;;-147.86;100.00;-17609.17;106663;1244;72602;-48
2023/12/24 00:30:46;;;;;;;10.60;4.30;;;;;;;-147.86;100.00;-17609.17;106705;1247;60517;-48
2023/12/24 00:33:13;;;;;;;11.30;4.00;;;;;;;-147.86;100.00;-17609.17;106717;1244;60473;-52
2023/12/24 00:35:39;;;;;;;8.20;3.40;;;;;;;-147.86;100.00;-17609.17;106680;1247;73561;-47
2023/12/24 00:38:06;;;;;;;7.70;3.60;;;;;;;-147.86;100.00;-17609.17;106482;1251;64365;-53
2023/12/24 00:40:34;;;;;;;10.70;3.40;;;;;;;-147.86;100.00;-17609.17;106747;1244;72635;-55
2023/12/24 00:43:01;;;;;;;7.80;3.30;;;;;;;-147.86;100.00;-17609.17;106656;1248;60463;-55
2023/12/24 00:45:29;;;;;;;9.00;3.80;;;;;;;-147.86;100.00;-17609.17;106646;1244;60410;-53
2023/12/24 00:47:56;;;;;;;11.60;3.70;;;;;;;-147.86;100.00;-17609.17;106698;1248;73821;-53
2023/12/24 00:50:24;;;;;;;10.50;3.40;;;;;;;-147.86;100.00;-17609.17;106674;1247;63731;-57
2023/12/24 00:52:51;;;;;;;9.60;3.30;;;;;;;-147.86;100.00;-17609.17;106659;1244;72365;-51
2023/12/24 00:55:18;;;;;;;7.50;3.60;;;;;;;-147.86;100.00;-17609.17;106619;1249;60467;-49
2023/12/24 00:57:45;;;;;;;11.50;3.80;;;;;;;-147.86;100.00;-17609.17;106647;1249;60410;-55
2023/12/24 01:00:13;;;;;;;10.00;3.70;;;;;;;-147.86;100.00;-17609.17;106525;1247;73778;-58
2023/12/24 01:02:41;;;;;;;20.60;4.30;;;;;;;-147.86;100.00;-17609.17;106692;1244;64500;-53
2023/12/24 01:05:08;;;;;;;7.10;2.90;;;;;;;-147.86;100.00;-17609.17;106688;1248;72661;-53
2023/12/24 01:07:35;;;;;;;11.90;3.60;;;;;;;-147.86;100.00;-17609.17;106623;1248;60981;-53
2023/12/24 01:10:03;;;;;;;7.60;3.20;;;;;;;-147.86;100.00;-17609.17;106415;1249;60480;-56
2023/12/24 01:12:30;;;;;;;11.30;4.00;;;;;;;-147.86;100.00;-17609.17;106282;1248;72378;-52
2023/12/24 01:14:58;;;;;;;7.90;3.30;;;;;;;-147.86;100.00;-17609.17;106674;1247;63131;-58
2023/12/24 01:17:25;;;;;;;10.20;3.10;;;;;;;-147.86;100.00;-17609.17;106695;1248;72354;-53
2023/12/24 01:19:52;;;;;;;9.10;3.30;;;;;;;-147.86;100.00;-17609.17;106490;1251;60358;-52
2023/12/24 01:22:19;;;;;;;6.10;3.40;;;;;;;-147.86;100.00;-17609.17;106592;1252;60333;-52
2023/12/24 01:24:46;;;;;;;11.70;3.30;;;;;;;-147.86;100.00;-17609.17;106673;1247;73753;-52
2023/12/24 01:27:14;;;;;;;9.30;3.10;;;;;;;-147.86;100.00;-17609.17;106695;1248;64660;-54
2023/12/24 01:29:41;;;;;;;5.80;2.70;;;;;;;-147.86;100.00;-17609.17;106640;1248;72534;-54
2023/12/24 01:32:08;;;;;;;7.10;2.90;;;;;;;-147.86;100.00;-17609.17;106449;1249;60581;-53
2023/12/24 01:34:35;;;;;;;6.30;2.70;;;;;;;-147.86;100.00;-17609.17;106782;1249;60415;-52
2023/12/24 01:37:02;;;;;;;8.60;3.10;;;;;;;-147.86;100.00;-17609.17;106624;1248;72815;-52
2023/12/24 01:39:30;;;;;;;6.50;2.70;;;;;;;-147.86;100.00;-17609.17;106474;1249;63569;-53
2023/12/24 01:41:56;;;;;;;9.70;3.80;;;;;;;-147.86;100.00;-17609.17;106563;1249;72422;-53
2023/12/24 01:44:23;;;;;;;10.30;3.10;;;;;;;-147.86;100.00;-17609.17;106517;1249;60400;-58
2023/12/24 01:46:51;;;;;;;14.10;3.80;;;;;;;-147.86;100.00;-17609.17;106436;1245;60435;-57
2023/12/24 01:49:18;;;;;;;10.50;3.40;;;;;;;-147.86;100.00;-17609.17;106557;1244;73869;-52
2023/12/24 01:51:45;;;;;;;8.10;3.10;;;;;;;-147.86;100.00;-17609.17;106656;1249;64613;-56
2023/12/24 01:54:12;;;;;;;11.00;3.50;;;;;;;-147.86;100.00;-17609.17;106629;1244;72646;-52
2023/12/24 01:56:47;;;;;;;5.90;2.70;;;;;;;-147.86;100.00;-17609.17;106519;1252;60512;-50
2023/12/24 01:59:15;;;;;;;12.10;3.50;;;;;;;-147.86;100.00;-17609.17;106475;1244;60546;-54
2023/12/24 02:01:42;;;;;;;6.60;3.10;;;;;;;-147.86;100.00;-17609.17;106522;1250;73845;-54
2023/12/24 02:04:09;;;;;;;8.80;3.20;;;;;;;-147.86;100.00;-17609.17;106308;1252;64648;-52
2023/12/24 02:06:36;;;;;;;3.90;2.40;;;;;;;-147.86;100.00;-17609.17;106476;1247;72639;-52
2023/12/24 02:09:03;;;;;;;7.50;3.00;;;;;;;-147.86;100.00;-17609.17;106429;1250;60358;-54
2023/12/24 02:11:29;;;;;;;8.50;3.50;;;;;;;-147.86;100.00;-17609.17;106504;1247;60901;-54
2023/12/24 02:13:56;;;;;;;7.50;2.90;;;;;;;-147.86;100.00;-17609.17;106685;1249;74017;-52
2023/12/24 02:16:23;;;;;;;6.80;3.00;;;;;;;-147.86;100.00;-17609.17;106686;1249;64605;-56
2023/12/24 02:18:50;;;;;;;9.10;3.10;;;;;;;-147.86;100.00;-17609.17;106327;1245;72595;-54
2023/12/24 02:21:17;;;;;;;10.30;3.60;;;;;;;-147.86;100.00;-17609.17;106429;1252;60503;-54
2023/12/24 02:23:44;;;;;;;5.30;3.10;;;;;;;-147.86;100.00;-17609.17;106458;1247;60473;-54
2023/12/24 02:26:29;;;;;;;9.70;2.90;;;;;;;-147.86;100.00;-17609.17;106519;1249;73552;-49
2023/12/24 02:29:10;;;;;;;7.10;3.00;;;;;;;-147.86;100.00;-17609.17;106432;1252;64552;-52
2023/12/24 02:31:38;;;;;;;6.70;2.80;;;;;;;-147.86;100.00;-17609.17;106688;1244;72489;-53
2023/12/24 02:34:05;;;;;;;5.50;3.00;;;;;;;-147.86;100.00;-17609.17;106704;1249;60416;-53
2023/12/24 02:36:33;;;;;;;5.70;2.90;;;;;;;-147.86;100.00;-17609.17;106652;1248;60419;-57
2023/12/24 02:39:01;;;;;;;8.30;3.20;;;;;;;-147.86;100.00;-17609.17;106547;1249;73903;-56
2023/12/24 02:41:28;;;;;;;8.80;3.60;;;;;;;-147.86;100.00;-17609.17;106658;1249;64531;-58
2023/12/24 02:43:55;;;;;;;8.50;3.10;;;;;;;-147.86;100.00;-17609.17;106617;1249;72573;-50
2023/12/24 02:46:22;;;;;;;8.80;3.10;;;;;;;-147.86;100.00;-17609.17;106625;1249;61047;-53
2023/12/24 02:48:49;;;;;;;7.80;3.40;;;;;;;-147.86;100.00;-17609.17;106536;1248;60425;-49
2023/12/24 02:51:16;;;;;;;13.30;3.80;;;;;;;-147.86;100.00;-17609.17;106196;1247;73866;-54
2023/12/24 02:53:43;;;;;;;7.10;2.90;;;;;;;-147.86;100.00;-17609.17;106622;1249;64644;-55
2023/12/24 02:56:10;;;;;;;9.60;3.20;;;;;;;-147.86;100.00;-17609.17;106688;1249;72628;-49
2023/12/24 02:58:37;;;;;;;8.40;3.30;;;;;;;-147.86;100.00;-17609.17;106618;1249;61006;-53
2023/12/24 03:01:04;;;;;;;8.40;3.10;;;;;;;-147.86;100.00;-17609.17;106448;1247;60526;-52
2023/12/24 03:03:31;;;;;;;4.20;2.90;;;;;;;-147.86;100.00;-17609.17;106640;1247;73781;-54
2023/12/24 03:05:58;;;;;;;8.70;3.50;;;;;;;-147.86;100.00;-17609.17;106445;1251;64504;-51
2023/12/24 03:08:25;;;;;;;8.20;3.30;;;;;;;-147.86;100.00;-17609.17;106727;1249;72596;-51
2023/12/24 03:10:52;;;;;;;6.80;3.20;;;;;;;-147.86;100.00;-17609.17;106474;1251;61085;-51
2023/12/24 03:13:19;;;;;;;6.70;3.30;;;;;;;-147.86;100.00;-17609.17;106622;1247;60418;-53
2023/12/24 03:15:45;;;;;;;10.20;3.80;;;;;;;-147.86;100.00;-17609.17;106639;1249;72872;-56
2023/12/24 03:18:12;;;;;;;12.30;3.70;;;;;;;-147.86;100.00;-17609.17;106668;1246;64908;-52
2023/12/24 03:20:39;;;;;;;6.40;3.10;;;;;;;-147.86;100.00;-17609.17;106610;1248;73914;-48
2023/12/24 03:23:06;;;;;;;4.30;3.10;;;;;;;-147.86;100.00;-17609.17;106693;1248;60914;-48
2023/12/24 03:25:33;;;;;;;6.90;3.20;;;;;;;-147.86;100.00;-17609.17;106646;1250;60444;-50
2023/12/24 03:28:00;;;;;;;11.90;3.20;;;;;;;-147.86;100.00;-17609.17;106450;1249;265653;-51
2023/12/24 03:30:26;;;;;;;8.40;3.30;;;;;;;-147.86;100.00;-17609.17;106534;1249;64637;-58
2023/12/24 03:34:14;;;;;;;;;;;;;;;-147.86;100.00;-17609.17;102358;1296;603226;-52
2023/12/24 03:36:41;;;;;;;6.10;3.40;;;;;;;-147.86;100.00;-17609.17;104785;1271;61051;-51
2023/12/24 03:39:09;;;;;;;8.70;3.70;;;;;;;-147.86;100.00;-17609.17;104800;1268;60014;-52
2023/12/24 03:41:37;;;;;;;7.10;3.20;;;;;;;-147.86;100.00;-17609.17;104856;1269;72095;-52
2023/12/24 03:44:04;;;;;;;6.80;2.90;;;;;;;-147.86;100.00;-17609.17;104891;1270;64687;-50
2023/12/24 03:46:32;;;;;;;6.50;3.00;;;;;;;-147.86;100.00;-17609.17;104748;1271;209072;-51
2023/12/24 03:48:59;;;;;;;8.70;3.50;;;;;;;-147.86;100.00;-17609.17;104986;1268;61226;-54
2023/12/24 03:51:26;;;;;;;11.50;3.70;;;;;;;-147.86;100.00;-17609.17;105052;1265;60185;-53
2023/12/24 03:53:53;;;;;;;7.10;2.60;;;;;;;-147.86;100.00;-17609.17;105044;1263;72315;-56
2023/12/24 03:56:20;;;;;;;8.40;3.20;;;;;;;-147.86;100.00;-17609.17;105188;1266;64587;-54
2023/12/24 03:58:48;;;;;;;5.90;2.90;;;;;;;-147.86;100.00;-17609.17;105226;1263;72637;-51
2023/12/24 04:01:14;;;;;;;5.20;2.80;;;;;;;-147.86;100.00;-17609.17;105958;1257;61101;-48
2023/12/24 04:03:41;;;;;;;4.00;2.80;;;;;;;-147.86;100.00;-17609.17;105790;1254;59702;-55
2023/12/24 04:06:10;;;;;;;10.50;3.10;;;;;;;-147.86;100.00;-17609.17;105933;1253;73644;-51
2023/12/24 04:08:37;;;;;;;3.30;2.80;;;;;;;-147.86;100.00;-17609.17;106025;1256;64614;-53
2023/12/24 04:11:13;;;;;;;9.60;2.50;;;;;;;-147.86;100.00;-17609.17;105901;1259;72517;-53
2023/12/24 04:13:42;;;;;;;6.00;2.80;;;;;;;-147.86;100.00;-17609.17;105982;1256;61236;-54
2023/12/24 04:16:09;;;;;;;8.80;2.70;;;;;;;-147.86;100.00;-17609.17;105989;1251;59675;-54
2023/12/24 04:18:37;;;;;;;8.10;2.90;;;;;;;-147.86;100.00;-17609.17;106017;1252;73072;-52
2023/12/24 04:21:04;;;;;;;6.40;2.90;;;;;;;-147.86;100.00;-17609.17;106008;1256;64501;-56
2023/12/24 04:23:31;;;;;;;8.30;3.30;;;;;;;-147.86;100.00;-17609.17;105940;1254;72699;-54
2023/12/24 04:25:58;;;;;;;8.00;2.90;;;;;;;-147.86;100.00;-17609.17;105869;1258;61055;-52
2023/12/24 04:28:25;;;;;;;9.50;2.50;;;;;;;-147.86;100.00;-17609.17;105962;1256;60342;-56
2023/12/24 04:30:52;;;;;;;8.00;3.20;;;;;;;-147.86;100.00;-17609.17;105852;1251;73069;-58
2023/12/24 04:33:19;;;;;;;6.20;2.50;;;;;;;-147.86;100.00;-17609.17;105941;1255;64459;-52
2023/12/24 04:35:46;;;;;;;7.20;3.00;;;;;;;-147.86;100.00;-17609.17;105951;1256;72623;-49
2023/12/24 04:38:14;;;;;;;8.40;3.30;;;;;;;-147.86;100.00;-17609.17;105927;1256;61037;-51
2023/12/24 04:40:41;;;;;;;7.50;3.80;;;;;;;-147.86;100.00;-17609.17;105990;1254;60647;-50
2023/12/24 04:43:08;;;;;;;9.80;3.60;;;;;;;-147.86;100.00;-17609.17;105912;1259;73058;-54
2023/12/24 04:45:35;;;;;;;9.70;3.30;;;;;;;-147.86;100.00;-17609.17;105833;1259;65121;-55
2023/12/24 04:48:03;;;;;;;8.40;3.10;;;;;;;-147.86;100.00;-17609.17;105960;1254;72496;-50
2023/12/24 04:50:30;;;;;;;6.40;4.30;;;;;;;-147.86;100.00;-17609.17;105841;1259;60088;-54
2023/12/24 04:52:57;;;;;;;7.10;3.40;;;;;;;-147.86;100.00;-17609.17;105833;1254;60186;-50
2023/12/24 04:55:25;;;;;;;7.80;4.00;;;;;;;-147.86;100.00;-17609.17;105955;1255;73035;-50
2023/12/24 04:57:52;;;;;;;8.30;3.40;;;;;;;-147.86;100.00;-17609.17;105985;1256;63745;-55
2023/12/24 05:00:19;;;;;;;5.10;3.10;;;;;;;-147.86;100.00;-17609.17;105984;1254;72701;-54
2023/12/24 05:02:46;;;;;;;7.50;3.30;;;;;;;-147.86;100.00;-17609.17;105784;1259;61127;-53
2023/12/24 05:05:14;;;;;;;8.40;3.40;;;;;;;-147.86;100.00;-17609.17;105737;1254;60282;-49
2023/12/24 05:07:41;;;;;;;10.40;3.40;;;;;;;-147.86;100.00;-17609.17;105785;1258;73063;-51
2023/12/24 05:10:08;;;;;;;8.20;3.30;;;;;;;-147.86;100.00;-17609.17;105983;1255;64521;-53
2023/12/24 05:12:35;;;;;;;11.10;3.40;;;;;;;-147.86;100.00;-17609.17;105831;1254;71449;-52
2023/12/24 05:15:02;;;;;;;7.00;3.70;;;;;;;-147.86;100.00;-17609.17;105953;1256;60015;-57
2023/12/24 05:17:30;;;;;;;9.70;3.30;;;;;;;-147.86;100.00;-17609.17;105831;1253;60158;-54
2023/12/24 05:19:57;;;;;;;6.90;3.80;;;;;;;-147.86;100.00;-17609.17;105867;1254;72988;-54
2023/12/24 05:22:23;;;;;;;6.60;3.50;;;;;;;-147.86;100.00;-17609.17;105804;1257;64636;-54
2023/12/24 05:24:51;;;;;;;8.00;3.80;;;;;;;-147.86;100.00;-17609.17;105977;1256;72631;-54
2023/12/24 05:27:18;;;;;;;12.30;4.30;;;;;;;-147.86;100.00;-17609.17;105939;1256;61165;-55
2023/12/24 05:29:44;;;;;;;6.50;3.20;;;;;;;-147.86;100.00;-17609.17;105972;1253;60288;-52
2023/12/24 05:32:11;;;;;;;9.10;3.10;;;;;;;-147.86;100.00;-17609.17;105930;1254;73571;-55
2023/12/24 05:34:38;;;;;;;5.80;3.30;;;;;;;-147.86;100.00;-17609.17;105963;1257;64620;-53
2023/12/24 05:37:05;;;;;;;8.90;3.30;;;;;;;-147.86;100.00;-17609.17;105954;1256;71735;-53
2023/12/24 05:39:32;;;;;;;12.60;3.40;;;;;;;-147.86;100.00;-17609.17;105937;1256;60995;-51
2023/12/24 05:41:59;;;;;;;10.40;3.70;;;;;;;-147.86;100.00;-17609.17;105965;1254;60137;-52
2023/12/24 05:44:26;;;;;;;8.20;3.50;;;;;;;-147.86;100.00;-17609.17;106005;1254;72964;-49
2023/12/24 05:46:54;;;;;;;7.80;3.40;;;;;;;-147.86;100.00;-17609.17;105949;1256;64659;-51
2023/12/24 05:49:21;;;;;;;9.00;3.90;;;;;;;-147.86;100.00;-17609.17;105972;1251;71500;-53
2023/12/24 05:51:48;;;;;;;6.30;3.30;;;;;;;-147.86;100.00;-17609.17;105912;1257;61161;-56
2023/12/24 05:54:15;;;;;;;7.40;3.20;;;;;;;-147.86;100.00;-17609.17;105971;1254;60284;-52
2023/12/24 05:56:42;;;;;;;10.20;4.00;;;;;;;-147.86;100.00;-17609.17;105927;1253;72969;-49
2023/12/24 05:59:09;;;;;;;10.00;3.90;;;;;;;-147.86;100.00;-17609.17;105881;1255;64993;-57
2023/12/24 06:01:36;;;;;;;7.50;3.60;;;;;;;-147.86;100.00;-17609.17;105954;1255;72591;-52
2023/12/24 06:04:03;;;;;;;8.30;4.20;;;;;;;-147.86;100.00;-17609.17;105899;1255;59637;-49
2023/12/24 06:06:30;;;;;;;8.00;3.50;;;;;;;-147.86;100.00;-17609.17;105842;1256;59561;-47
2023/12/24 06:08:57;;;;;;;7.20;3.40;;;;;;;-147.86;100.00;-16757.26;105891;1253;72914;-53
2023/12/24 06:11:24;;;;;;;8.00;3.20;;;;;;;-147.86;100.00;-17609.17;105990;1256;64703;-53
2023/12/24 06:13:51;;;;;;;10.20;3.70;;;;;;;-147.86;100.00;-17609.17;105928;1255;72401;-50
2023/12/24 06:16:18;;;;;;;6.60;3.90;;;;;;;-147.86;100.00;-17609.17;105906;1255;59726;-48
2023/12/24 06:18:45;;;;;;;6.60;4.10;;;;;;;-147.86;100.00;-17609.17;105848;1253;60301;-54
2023/12/24 06:21:12;;;;;;;7.10;4.00;;;;;;;-147.86;100.00;-17609.17;105885;1255;72916;-53
2023/12/24 06:23:39;;;;;;;12.90;4.10;;;;;;;-147.86;100.00;-17609.17;105898;1256;64646;-52
2023/12/24 06:26:06;;;;;;;7.30;3.60;;;;;;;-147.86;100.00;-17609.17;105908;1255;72546;-50
2023/12/24 06:28:33;;;;;;;8.40;4.30;;;;;;;-147.86;100.00;-17609.17;105901;1255;59643;-52
2023/12/24 06:31:00;;;;;;;9.30;4.40;;;;;;;-147.86;100.00;-17609.17;105926;1266;60271;-49
2023/12/24 06:33:27;;;;;;;9.90;4.40;;;;;;;-147.86;100.00;-17609.17;105842;1255;73078;-49
2023/12/24 06:35:54;;;;;;;9.70;4.10;;;;;;;-147.86;100.00;-17609.17;105920;1255;64634;-54
2023/12/24 06:38:21;;;;;;;6.30;3.50;;;;;;;-147.86;100.00;-17609.17;105869;1255;72648;-56
2023/12/24 06:40:48;;;;;;;12.60;4.20;;;;;;;-147.86;100.00;-17609.17;105961;1263;59819;-55
2023/12/24 06:43:15;;;;;;;4.70;2.90;;;;;;;-147.86;100.00;-17609.17;105873;1255;60121;-52
2023/12/24 06:45:43;;;;;;;12.10;4.20;;;;;;;-147.86;100.00;-17609.17;105940;1263;72764;-52
2023/12/24 06:48:10;;;;;;;11.50;3.90;;;;;;;-147.86;100.00;-17609.17;105886;1256;64923;-48
2023/12/24 06:50:37;;;;;;;12.20;4.00;;;;;;;-147.86;100.00;-17609.17;105941;1255;72781;-53
2023/12/24 06:53:05;;;;;;;9.00;4.00;;;;;;;-147.86;100.00;-17609.17;105860;1255;59649;-53
2023/12/24 06:55:32;;;;;;;9.90;4.30;;;;;;;-147.86;100.00;-17609.17;105948;1254;60252;-53
2023/12/24 06:58:02;;;;;;;10.40;4.30;;;;;;;-147.86;100.00;-17609.17;105869;1255;73015;-56
2023/12/24 07:00:30;;;;;;;7.00;3.70;;;;;;;-147.86;100.00;-17609.17;105952;1255;64797;-48
2023/12/24 07:02:56;;;;;;;7.30;4.00;;;;;;;-147.86;100.00;-17609.17;105888;1253;72610;-53
2023/12/24 07:05:23;;;;;;;9.60;3.60;;;;;;;-147.86;100.00;-17609.17;105903;1256;59616;-49
2023/12/24 07:07:51;;;;;;;8.30;3.60;;;;;;;-147.86;100.00;-17609.17;105882;1255;59643;-51
2023/12/24 07:10:17;;;;;;;8.60;3.80;;;;;;;-147.86;100.00;-17609.17;105918;1256;73098;-52
2023/12/24 07:12:44;;;;;;;7.70;4.00;;;;;;;-147.86;100.00;-17609.17;105864;1255;64634;-49
2023/12/24 07:15:11;;;;;;;7.30;3.80;;;;;;;-147.86;100.00;-17609.17;105888;1254;72648;-52
2023/12/24 07:17:38;;;;;;;7.00;3.90;;;;;;;-147.86;100.00;-17609.17;105858;1255;61674;-49
2023/12/24 07:20:06;;;;;;;7.00;4.00;;;;;;;-147.86;100.00;-17569.56;105908;1258;60217;-48
2023/12/24 07:22:33;;;;;;;6.70;3.90;;;;;;;-147.86;100.00;-17609.17;105840;1255;72982;-54
2023/12/24 07:25:00;;;;;;;11.60;4.10;;;;;;;-147.86;100.00;-17609.17;105989;1256;64640;-54
2023/12/24 07:27:27;;;;;;;8.30;4.00;;;;;;;-147.86;100.00;-17609.17;105923;1255;72734;-53
2023/12/24 07:29:54;;;;;;;11.10;4.00;;;;;;;-147.86;100.00;-17609.17;105857;1256;61265;-55
2023/12/24 07:32:21;;;;;;;7.30;4.10;;;;;;;-147.86;100.00;-17609.17;105655;1256;60164;-51
2023/12/24 07:34:48;;;;;;;10.50;4.40;;;;;;;-147.86;100.00;-17609.17;105653;1254;72971;-50
2023/12/24 07:37:16;;;;;;;12.90;4.70;;;;;;;-147.86;100.00;-17609.17;105732;1256;64444;-52
2023/12/24 07:39:43;;;;;;;12.60;3.90;;;;;;;-147.86;100.00;-17609.17;105933;1256;72685;-54
2023/12/24 07:42:10;;;;;;;8.00;3.80;;;;;;;-147.86;100.00;-17609.17;105921;1256;60421;-59
2023/12/24 07:44:38;;;;;;;6.30;3.60;;;;;;;-147.86;100.00;-17609.17;105897;1256;60524;-57
2023/12/24 07:47:05;;;;;;;6.50;3.60;;;;;;;-147.86;100.00;-17609.17;105939;1253;73798;-58
2023/12/24 07:49:32;;;;;;;8.80;4.30;;;;;;;-147.86;100.00;-17500.17;105864;1256;64496;-53
2023/12/24 07:51:59;;;;;;;10.90;4.30;;;;;;;-147.86;100.00;-17233.95;105982;1256;72493;-49
2023/12/24 07:54:26;;;;;;;7.40;3.40;;;;;;;-147.86;100.00;-16024.56;105876;1256;61316;-50
2023/12/24 07:56:53;;;;;;;8.50;4.10;;;;;;;-147.86;100.00;-16703.65;105858;1254;60493;-53
2023/12/24 07:59:20;;;;;;;7.00;3.40;;;;;;;-147.86;100.00;-13705.84;105936;1255;73867;-51
2023/12/24 08:01:47;;;;;;;10.00;3.50;;;;;;;-147.86;100.00;-15186.46;105934;1256;64633;-57
2023/12/24 08:04:14;;;;;;;6.00;3.90;;;;;;;-147.86;100.00;-14790.64;105938;1256;72776;-53
2023/12/24 08:06:41;;;;;;;10.00;4.00;;;;;;;-147.86;100.00;-17040.10;105940;1256;60942;-56
2023/12/24 08:09:10;;;;;;;14.90;4.50;;;;;;;-147.86;100.00;-17132.38;105916;1257;60409;-53
2023/12/24 08:11:37;;;;;;;6.40;3.50;;;;;;;-147.86;100.00;-16736.15;105919;1254;73881;-52
2023/12/24 08:14:04;;;;;;;9.60;3.40;;;;;;;-147.86;100.00;-17080.11;105877;1258;64420;-51
2023/12/24 08:16:32;;;;;;;8.80;3.50;;;;;;;-147.86;100.00;-16241.30;105890;1254;72662;-53
2023/12/24 08:18:58;;;;;;;8.10;3.50;;;;;;;-147.86;100.00;-16047.89;105903;1258;61789;-54
2023/12/24 08:21:26;;;;;;;11.40;3.90;;;;;;;-147.86;100.00;-17051.04;105957;1251;61117;-54
2023/12/24 08:23:52;;;;;;;7.50;3.50;;;;;;;-147.86;100.00;-16459.89;105837;1253;73886;-56
2023/12/24 08:26:20;;;;;;;7.40;2.70;;;;;;;-147.86;100.00;-15084.27;105874;1257;64600;-53
2023/12/24 08:28:46;;;;;;;8.20;3.20;;;;;;;-147.86;100.00;-13176.58;105872;1256;72627;-55
2023/12/24 08:31:13;;;;;;;5.90;3.60;;;;;;;-147.86;100.00;-13534.69;105874;1256;61255;-56
2023/12/24 08:33:40;;;;;;;15.20;4.00;;;;;;;-147.86;100.00;-11882.05;105933;1256;60450;-58
2023/12/24 08:36:08;;;;;;;7.50;3.40;;;;;;;-147.86;100.00;-9744.92;105935;1260;73814;-55
2023/12/24 08:38:35;;;;;;;9.00;3.40;;;;;;;-147.86;100.00;-10014.20;105921;1258;65054;-54
2023/12/24 08:41:02;;;;;;;7.10;2.80;;;;;;;-147.86;100.00;-7206.04;105943;1254;72608;-56
2023/12/24 08:43:29;;;;;;;5.80;3.10;;;;;;;-147.86;100.00;-6890.88;105905;1256;60395;-57
2023/12/24 08:45:59;;;;;;;4.80;3.10;;;;;;;-147.86;100.00;-6124.00;105907;1257;60436;-57
2023/12/24 08:48:26;;;;;;;6.20;2.90;;;;;;;-147.86;100.00;-6840.08;105871;1256;73807;-51
2023/12/24 08:50:53;;;;;;;5.10;2.70;;;;;;;-147.86;100.00;861.66;105918;1257;64569;-54
2023/12/24 08:53:20;;;;;;;5.70;2.50;;;;;;;-147.86;100.00;7676.60;105877;1257;72431;-55
2023/12/24 08:55:47;;;;;;;8.80;3.30;;;;;;;-147.86;100.00;19644.12;105853;1259;60415;-59
2023/12/24 08:58:14;;;;;;;5.70;2.90;;;;;;;-147.86;100.00;24890.78;105924;1254;60437;-53
2023/12/24 09:00:41;;;;;;;4.90;2.90;;;;;;;-147.86;100.00;20291.10;105885;1257;73824;-52
2023/12/24 09:03:08;;;;;;;4.70;2.80;;;;;;;-147.86;100.00;13208.31;105928;1257;64611;-53
2023/12/24 09:05:35;;;;;;;4.40;3.00;;;;;;;-147.86;100.00;18585.32;105932;1255;72453;-58
2023/12/24 09:08:03;;;;;;;4.80;2.50;;;;;;;-147.86;100.00;23053.29;105927;1266;60337;-52
2023/12/24 09:10:30;;;;;;;4.70;2.80;;;;;;;-147.86;100.00;21006.28;105924;1254;60469;-55
2023/12/24 09:12:57;;;;;;;3.90;2.60;;;;;;;-147.86;100.00;15785.18;105930;1253;73869;-56
2023/12/24 09:15:24;;;;;;;6.70;3.00;;;;;;;-147.86;100.00;16632.86;105920;1256;64577;-55
2023/12/24 09:17:51;;;;;;;4.60;2.50;;;;;;;-147.86;100.00;40126.98;105902;1253;72731;-52
2023/12/24 09:20:18;;;;;;;5.00;2.40;;;;;;;-147.86;100.00;54243.26;105865;1255;61114;-56
2023/12/24 09:22:45;;;;;;;13.10;3.20;;;;;;;-147.86;100.00;58633.79;105920;1254;60485;-55
2023/12/24 09:25:12;;;;;;;5.90;3.80;;;;;;;-147.86;100.00;65602.21;105907;1254;73756;-51
2023/12/24 09:27:39;;;;;;;4.90;2.50;;;;;;;-147.86;100.00;68903.58;105936;1257;64526;-53
2023/12/24 09:30:06;;;;;;;7.20;2.90;;;;;;;-147.86;100.00;62580.45;105919;1254;71811;-55
2023/12/24 09:32:34;;;;;;;5.10;2.20;;;;;;;-147.86;100.00;57839.86;105880;1258;60429;-55
2023/12/24 09:35:02;;;;;;;7.70;2.70;;;;;;;-147.86;100.00;54241.57;105962;1254;60541;-55
2023/12/24 09:37:30;;;;;;;8.00;2.90;;;;;;;-147.86;100.00;50072.96;105967;1254;73923;-53
2023/12/24 09:39:58;;;;;;;6.10;2.90;;;;;;;-147.86;100.00;34158.46;105728;1254;64928;-54
2023/12/24 09:42:25;;;;;;;5.00;3.10;;;;;;;-147.86;100.00;30485.40;105888;1257;72651;-57
2023/12/24 09:44:51;;;;;;;6.90;2.40;;;;;;;-147.86;100.00;25205.64;105918;1255;60328;-53
2023/12/24 09:47:18;;;;;;;3.40;2.60;;;;;;;-147.86;100.00;48592.50;105942;1255;60444;-50
2023/12/24 09:49:46;;;;;;;6.30;3.30;;;;;;;-147.86;100.00;48569.54;105940;1265;73850;-56
2023/12/24 09:52:14;;;;;;;7.00;3.80;;;;;;;-147.86;100.00;40594.29;105877;1257;65468;-56
2023/12/24 09:54:42;;;;;;;5.20;3.00;;;;;;;-147.86;100.00;36641.95;105918;1254;72744;-52
2023/12/24 09:57:10;;;;;;;7.10;3.10;;;;;;;-147.86;100.00;35817.86;105929;1257;60414;-55
2023/12/24 09:59:37;;;;;;;7.50;3.00;;;;;;;-147.86;100.00;38594.60;105940;1254;60409;-52
2023/12/24 10:02:04;;;;;;;11.20;3.00;;;;;;;-147.86;100.00;31797.23;105918;1256;73779;-56
2023/12/24 10:04:31;;;;;;;6.60;3.60;;;;;;;-147.86;100.00;27929.17;105919;1257;64675;-53
2023/12/24 10:06:58;;;;;;;8.60;3.20;;;;;;;-147.86;100.00;-13113.96;105905;1254;72557;-53
2023/12/24 10:09:49;;;;;;;4.70;2.70;;;;;;;-147.86;100.00;1661.10;105883;1256;60342;-54
2023/12/24 10:12:16;;;;;;;7.50;3.10;;;;;;;-147.86;100.00;6927.16;105890;1254;60477;-56
2023/12/24 10:14:54;;;;;;;7.20;2.90;;;;;;;-147.86;100.00;17892.81;105785;1257;72828;-53
2023/12/24 10:17:29;;;;;;;5.40;3.40;;;;;;;-147.86;100.00;23383.29;105959;1252;63434;-55
2023/12/24 10:19:57;;;;;;;10.60;3.40;;;;;;;-147.86;100.00;15800.78;105930;1254;71066;-56
2023/12/24 10:22:24;;;;;;;7.60;3.50;;;;;;;-147.86;100.00;16101.40;105913;1256;60509;-53
2023/12/24 10:25:09;;;;;;;8.60;2.60;;;;;;;-147.86;100.00;18858.30;105901;1253;60880;-58
2023/12/24 10:27:36;;;;;;;5.80;2.90;;;;;;;-147.86;100.00;9068.99;105740;1260;73764;-52
2023/12/24 10:30:14;;;;;;;5.20;3.00;;;;;;;-147.86;100.00;-5826.18;105863;1266;64641;-53
2023/12/24 10:32:42;;;;;;;5.10;2.80;;;;;;;-147.86;100.00;-16739.82;105884;1254;72670;-55
2023/12/24 10:35:09;;;;;;;6.50;3.30;;;;;;;-147.86;100.00;-17036.61;105911;1262;60525;-55
2023/12/24 10:37:37;;;;;;;6.90;3.40;;;;;;;-147.86;100.00;-17609.17;105928;1255;60536;-55
2023/12/24 10:40:08;;;;;;;5.30;2.70;;;;;;;-147.86;100.00;-17609.17;105865;1255;73710;-51
2023/12/24 10:42:39;;;;;;;7.90;2.80;;;;;;;-147.86;100.00;-17308.14;105899;1254;63651;-58
2023/12/24 10:45:11;;;;;;;5.70;3.90;;;;;;;-147.86;100.00;-10707.18;105934;1254;72624;-53
2023/12/24 10:47:38;;;;;;;8.00;3.80;;;;;;;-147.86;100.00;-8717.61;105898;1255;60342;-54
2023/12/24 10:50:06;;;;;;;7.70;3.60;;;;;;;-147.86;100.00;-17609.17;105930;1253;60592;-53
2023/12/24 10:52:34;;;;;;;8.70;4.10;;;;;;;-147.86;100.00;-17609.17;105886;1257;73876;-58
2023/12/24 10:55:01;;;;;;;6.60;3.30;;;;;;;-147.86;100.00;-17609.17;105993;1257;64731;-52
2023/12/24 10:57:37;;;;;;;6.40;3.80;;;;;;;-147.86;100.00;-17609.17;105721;1254;72560;-56